sensor_id;sensor_type;location;lat;lon;timestamp;pressure;altitude;pressure_sealevel;temperature;humidity
34328;BME280;20588;48.840;10.064;2024-02-21T00:01:21;97416.41;;;6.12;100.00
34328;BME280;20588;48.840;10.064;2024-02-21T00:03:47;97420.56;;;6.13;100.00
34328;BME280;20588;48.840;10.064;2024-02-21T00:06:13;97411.31;;;6.12;100.00
34328;BME280;20588;48.840;10.064;2024-02-21T00:08:39;97410.50;;;6.11;100.00
34328;BME280;20588;48.840;10.064;2024-02-21T00:11:05;97417.03;;;6.14;100.00
34328;BME280;20588;48.840;10.064;2024-02-21T00:13:32;97412.91;;;6.13;100.00
34328;BME280;20588;48.840;10.064;2024-02-21T00:15:59;97407.47;;;6.16;100.00
34328;BME280;20588;48.840;10.064;2024-02-21T00:18:26;97403.16;;;6.16;100.00
34328;BME280;20588;48.840;10.064;2024-02-21T00:20:52;97401.53;;;6.15;100.00
34328;BME280;20588;48.840;10.064;2024-02-21T00:23:18;97400.63;;;6.16;100.00
34328;BME280;20588;48.840;10.064;2024-02-21T00:25:44;97400.44;;;6.18;100.00
34328;BME280;20588;48.840;10.064;2024-02-21T00:28:10;97405.56;;;6.18;100.00
34328;BME280;20588;48.840;10.064;2024-02-21T00:30:37;97399.47;;;6.19;100.00
34328;BME280;20588;48.840;10.064;2024-02-21T00:33:04;97393.56;;;6.18;100.00
34328;BME280;20588;48.840;10.064;2024-02-21T00:35:31;97408.91;;;6.18;100.00
34328;BME280;20588;48.840;10.064;2024-02-21T00:37:57;97402.03;;;6.19;100.00
34328;BME280;20588;48.840;10.064;2024-02-21T00:40:25;97398.19;;;6.23;100.00
34328;BME280;20588;48.840;10.064;2024-02-21T00:42:51;97395.47;;;6.24;100.00
34328;BME280;20588;48.840;10.064;2024-02-21T00:45:17;97392.91;;;6.24;100.00
34328;BME280;20588;48.840;10.064;2024-02-21T00:47:43;97389.44;;;6.25;100.00
34328;BME280;20588;48.840;10.064;2024-02-21T00:50:09;97382.84;;;6.23;100.00
34328;BME280;20588;48.840;10.064;2024-02-21T00:52:35;97390.19;;;6.26;100.00
34328;BME280;20588;48.840;10.064;2024-02-21T00:55:02;97377.44;;;6.26;100.00
34328;BME280;20588;48.840;10.064;2024-02-21T00:57:28;97379.03;;;6.27;100.00
34328;BME280;20588;48.840;10.064;2024-02-21T00:59:54;97371.38;;;6.27;100.00
34328;BME280;20588;48.840;10.064;2024-02-21T01:02:20;97375.69;;;6.26;100.00
34328;BME280;20588;48.840;10.064;2024-02-21T01:04:46;97372.16;;;6.27;100.00
34328;BME280;20588;48.840;10.064;2024-02-21T01:07:12;97369.75;;;6.26;100.00
34328;BME280;20588;48.840;10.064;2024-02-21T01:09:38;97359.69;;;6.24;100.00
34328;BME280;20588;48.840;10.064;2024-02-21T01:12:04;97359.22;;;6.29;100.00
34328;BME280;20588;48.840;10.064;2024-02-21T01:14:30;97362.25;;;6.24;100.00
34328;BME280;20588;48.840;10.064;2024-02-21T01:16:56;97359.09;;;6.22;100.00
34328;BME280;20588;48.840;10.064;2024-02-21T01:19:22;97350.13;;;6.18;100.00
34328;BME280;20588;48.840;10.064;2024-02-21T01:21:49;97350.13;;;6.18;100.00
34328;BME280;20588;48.840;10.064;2024-02-21T01:24:15;97346.16;;;6.16;100.00
34328;BME280;20588;48.840;10.064;2024-02-21T01:26:41;97342.19;;;6.13;100.00
34328;BME280;20588;48.840;10.064;2024-02-21T01:29:07;97337.84;;;6.14;100.00
34328;BME280;20588;48.840;10.064;2024-02-21T01:31:33;97331.16;;;6.13;100.00
34328;BME280;20588;48.840;10.064;2024-02-21T01:33:59;97329.25;;;6.15;100.00
34328;BME280;20588;48.840;10.064;2024-02-21T01:36:25;97327.47;;;6.15;100.00
34328;BME280;20588;48.840;10.064;2024-02-21T01:38:51;97321.25;;;6.18;100.00
34328;BME280;20588;48.840;10.064;2024-02-21T01:41:18;97317.06;;;6.17;100.00
34328;BME280;20588;48.840;10.064;2024-02-21T01:43:44;97317.06;;;6.17;100.00
34328;BME280;20588;48.840;10.064;2024-02-21T01:46:10;97312.78;;;6.17;100.00
34328;BME280;20588;48.840;10.064;2024-02-21T01:48:37;97296.31;;;6.20;100.00
34328;BME280;20588;48.840;10.064;2024-02-21T01:51:04;97297.94;;;6.21;100.00
34328;BME280;20588;48.840;10.064;2024-02-21T01:53:34;97285.16;;;6.21;100.00
34328;BME280;20588;48.840;10.064;2024-02-21T01:56:03;97289.94;;;6.24;100.00
34328;BME280;20588;48.840;10.064;2024-02-21T01:58:31;97293.25;;;6.24;100.00
34328;BME280;20588;48.840;10.064;2024-02-21T02:01:00;97288.16;;;6.24;100.00
34328;BME280;20588;48.840;10.064;2024-02-21T02:03:26;97296.13;;;6.29;100.00
34328;BME280;20588;48.840;10.064;2024-02-21T02:05:52;97294.56;;;6.28;100.00
34328;BME280;20588;48.840;10.064;2024-02-21T02:08:19;97285.91;;;6.29;100.00
34328;BME280;20588;48.840;10.064;2024-02-21T02:10:48;97279.06;;;6.30;100.00
34328;BME280;20588;48.840;10.064;2024-02-21T02:13:14;97280.00;;;6.29;100.00
34328;BME280;20588;48.840;10.064;2024-02-21T02:15:45;97278.09;;;6.31;100.00
34328;BME280;20588;48.840;10.064;2024-02-21T02:18:12;97284.00;;;6.31;100.00
34328;BME280;20588;48.840;10.064;2024-02-21T02:20:39;97272.66;;;6.34;100.00
34328;BME280;20588;48.840;10.064;2024-02-21T02:23:12;97268.97;;;6.36;99.94
34328;BME280;20588;48.840;10.064;2024-02-21T02:25:40;97261.75;;;6.40;99.50
34328;BME280;20588;48.840;10.064;2024-02-21T02:28:07;97260.78;;;6.41;99.30
34328;BME280;20588;48.840;10.064;2024-02-21T02:30:34;97253.13;;;6.41;99.16
34328;BME280;20588;48.840;10.064;2024-02-21T02:33:05;97251.38;;;6.41;99.47
34328;BME280;20588;48.840;10.064;2024-02-21T02:35:31;97246.09;;;6.43;99.37
34328;BME280;20588;48.840;10.064;2024-02-21T02:37:58;97249.63;;;6.42;99.19
34328;BME280;20588;48.840;10.064;2024-02-21T02:40:24;97242.56;;;6.44;98.76
34328;BME280;20588;48.840;10.064;2024-02-21T02:42:50;97238.09;;;6.46;98.88
34328;BME280;20588;48.840;10.064;2024-02-21T02:45:18;97233.66;;;6.40;99.03
34328;BME280;20588;48.840;10.064;2024-02-21T02:47:47;97226.31;;;6.37;99.13
34328;BME280;20588;48.840;10.064;2024-02-21T02:50:13;97228.22;;;6.35;99.51
34328;BME280;20588;48.840;10.064;2024-02-21T02:52:39;97229.03;;;6.35;99.45
34328;BME280;20588;48.840;10.064;2024-02-21T02:55:06;97226.81;;;6.32;99.70
34328;BME280;20588;48.840;10.064;2024-02-21T02:57:33;97229.19;;;6.34;99.76
34328;BME280;20588;48.840;10.064;2024-02-21T02:59:59;97224.09;;;6.34;99.51
34328;BME280;20588;48.840;10.064;2024-02-21T03:02:25;97223.28;;;6.33;99.58
34328;BME280;20588;48.840;10.064;2024-02-21T03:04:51;97213.88;;;6.34;99.41
34328;BME280;20588;48.840;10.064;2024-02-21T03:07:17;97208.59;;;6.35;99.33
34328;BME280;20588;48.840;10.064;2024-02-21T03:09:44;97204.28;;;6.36;99.31
34328;BME280;20588;48.840;10.064;2024-02-21T03:12:10;97220.22;;;6.38;99.21
34328;BME280;20588;48.840;10.064;2024-02-21T03:14:36;97207.78;;;6.35;99.79
34328;BME280;20588;48.840;10.064;2024-02-21T03:17:03;97210.06;;;6.30;100.00
34328;BME280;20588;48.840;10.064;2024-02-21T03:19:29;97218.66;;;6.29;100.00
34328;BME280;20588;48.840;10.064;2024-02-21T03:21:55;97205.28;;;6.27;100.00
34328;BME280;20588;48.840;10.064;2024-02-21T03:24:21;97201.28;;;6.24;100.00
34328;BME280;20588;48.840;10.064;2024-02-21T03:26:47;97189.31;;;6.25;100.00
34328;BME280;20588;48.840;10.064;2024-02-21T03:29:15;97189.31;;;6.25;100.00
34328;BME280;20588;48.840;10.064;2024-02-21T03:31:42;97193.00;;;6.22;100.00
34328;BME280;20588;48.840;10.064;2024-02-21T03:34:10;97202.41;;;6.22;100.00
34328;BME280;20588;48.840;10.064;2024-02-21T03:36:36;97198.72;;;6.24;100.00
34328;BME280;20588;48.840;10.064;2024-02-21T03:39:02;97188.84;;;6.21;100.00
34328;BME280;20588;48.840;10.064;2024-02-21T03:41:28;97199.22;;;6.20;100.00
34328;BME280;20588;48.840;10.064;2024-02-21T03:43:54;97195.09;;;6.19;100.00
34328;BME280;20588;48.840;10.064;2024-02-21T03:46:20;97182.47;;;6.17;100.00
34328;BME280;20588;48.840;10.064;2024-02-21T03:48:46;97175.94;;;6.15;100.00
34328;BME280;20588;48.840;10.064;2024-02-21T03:51:12;97173.56;;;6.13;100.00
34328;BME280;20588;48.840;10.064;2024-02-21T03:53:39;97165.25;;;6.11;100.00
34328;BME280;20588;48.840;10.064;2024-02-21T03:56:05;97161.13;;;6.10;100.00
34328;BME280;20588;48.840;10.064;2024-02-21T03:58:31;97157.75;;;6.10;100.00
34328;BME280;20588;48.840;10.064;2024-02-21T04:00:59;97156.78;;;6.11;100.00
34328;BME280;20588;48.840;10.064;2024-02-21T04:03:25;97157.44;;;6.13;100.00
34328;BME280;20588;48.840;10.064;2024-02-21T04:05:52;97154.06;;;6.12;100.00
34328;BME280;20588;48.840;10.064;2024-02-21T04:08:18;97155.22;;;6.10;100.00
34328;BME280;20588;48.840;10.064;2024-02-21T04:10:44;97149.47;;;6.08;100.00
34328;BME280;20588;48.840;10.064;2024-02-21T04:13:10;97139.25;;;6.08;100.00
34328;BME280;20588;48.840;10.064;2024-02-21T04:15:36;97145.31;;;6.07;100.00
34328;BME280;20588;48.840;10.064;2024-02-21T04:18:03;97150.44;;;6.07;100.00
34328;BME280;20588;48.840;10.064;2024-02-21T04:20:29;97158.25;;;6.05;100.00
34328;BME280;20588;48.840;10.064;2024-02-21T04:22:56;97173.75;;;6.04;100.00
34328;BME280;20588;48.840;10.064;2024-02-21T04:25:22;97168.81;;;6.02;100.00
34328;BME280;20588;48.840;10.064;2024-02-21T04:27:48;97154.47;;;6.01;100.00
34328;BME280;20588;48.840;10.064;2024-02-21T04:30:14;97148.06;;;5.97;100.00
34328;BME280;20588;48.840;10.064;2024-02-21T04:32:41;97141.38;;;5.96;100.00
34328;BME280;20588;48.840;10.064;2024-02-21T04:35:08;97138.34;;;5.93;100.00
34328;BME280;20588;48.840;10.064;2024-02-21T04:37:34;97151.94;;;5.85;100.00
34328;BME280;20588;48.840;10.064;2024-02-21T04:40:00;97152.41;;;5.81;100.00
34328;BME280;20588;48.840;10.064;2024-02-21T04:42:26;97152.56;;;5.79;100.00
34328;BME280;20588;48.840;10.064;2024-02-21T04:44:52;97143.16;;;5.80;100.00
34328;BME280;20588;48.840;10.064;2024-02-21T04:47:19;97147.63;;;5.78;100.00
34328;BME280;20588;48.840;10.064;2024-02-21T04:49:49;97142.84;;;5.75;100.00
34328;BME280;20588;48.840;10.064;2024-02-21T04:52:15;97129.00;;;5.69;100.00
34328;BME280;20588;48.840;10.064;2024-02-21T04:54:41;97123.75;;;5.63;100.00
34328;BME280;20588;48.840;10.064;2024-02-21T04:57:07;97118.66;;;5.54;100.00
34328;BME280;20588;48.840;10.064;2024-02-21T04:59:36;97111.16;;;5.53;100.00
34328;BME280;20588;48.840;10.064;2024-02-21T05:02:02;97097.47;;;5.54;100.00
34328;BME280;20588;48.840;10.064;2024-02-21T05:04:29;97100.19;;;5.44;100.00
34328;BME280;20588;48.840;10.064;2024-02-21T05:06:55;97088.09;;;5.30;100.00
34328;BME280;20588;48.840;10.064;2024-02-21T05:09:22;97088.91;;;5.23;100.00
34328;BME280;20588;48.840;10.064;2024-02-21T05:11:48;97083.50;;;5.18;100.00
34328;BME280;20588;48.840;10.064;2024-02-21T05:14:14;97088.28;;;5.13;100.00
34328;BME280;20588;48.840;10.064;2024-02-21T05:16:40;97092.44;;;5.06;100.00
34328;BME280;20588;48.840;10.064;2024-02-21T05:19:06;97095.47;;;5.01;100.00
34328;BME280;20588;48.840;10.064;2024-02-21T05:21:32;97100.28;;;4.96;100.00
34328;BME280;20588;48.840;10.064;2024-02-21T05:23:58;97102.66;;;4.90;100.00
34328;BME280;20588;48.840;10.064;2024-02-21T05:26:26;97097.38;;;4.83;100.00
34328;BME280;20588;48.840;10.064;2024-02-21T05:28:53;97087.66;;;4.79;100.00
34328;BME280;20588;48.840;10.064;2024-02-21T05:31:19;97097.72;;;4.72;100.00
34328;BME280;20588;48.840;10.064;2024-02-21T05:33:46;97093.09;;;4.68;100.00
34328;BME280;20588;48.840;10.064;2024-02-21T05:36:13;97089.41;;;4.62;100.00
34328;BME280;20588;48.840;10.064;2024-02-21T05:38:39;97096.59;;;4.59;100.00
34328;BME280;20588;48.840;10.064;2024-02-21T05:41:05;97088.63;;;4.54;100.00
34328;BME280;20588;48.840;10.064;2024-02-21T05:43:31;97100.88;;;4.50;100.00
34328;BME280;20588;48.840;10.064;2024-02-21T05:45:57;97094.50;;;4.46;100.00
34328;BME280;20588;48.840;10.064;2024-02-21T05:48:24;97098.34;;;4.42;100.00
34328;BME280;20588;48.840;10.064;2024-02-21T05:50:50;97099.44;;;4.40;100.00
34328;BME280;20588;48.840;10.064;2024-02-21T05:53:17;97096.22;;;4.38;100.00
34328;BME280;20588;48.840;10.064;2024-02-21T05:55:43;97097.03;;;4.30;100.00
34328;BME280;20588;48.840;10.064;2024-02-21T05:58:09;97092.88;;;4.21;100.00
34328;BME280;20588;48.840;10.064;2024-02-21T06:00:39;97076.78;;;4.13;100.00
34328;BME280;20588;48.840;10.064;2024-02-21T06:03:05;97077.72;;;4.04;100.00
34328;BME280;20588;48.840;10.064;2024-02-21T06:05:31;97076.09;;;3.95;100.00
34328;BME280;20588;48.840;10.064;2024-02-21T06:07:57;97085.16;;;3.89;100.00
34328;BME280;20588;48.840;10.064;2024-02-21T06:10:24;97078.78;;;3.85;100.00
34328;BME280;20588;48.840;10.064;2024-02-21T06:12:50;97081.00;;;3.80;100.00
34328;BME280;20588;48.840;10.064;2024-02-21T06:15:16;97085.59;;;3.77;100.00
34328;BME280;20588;48.840;10.064;2024-02-21T06:17:42;97065.84;;;3.70;100.00
34328;BME280;20588;48.840;10.064;2024-02-21T06:20:08;97070.44;;;3.67;100.00
34328;BME280;20588;48.840;10.064;2024-02-21T06:22:34;97066.47;;;3.64;100.00
34328;BME280;20588;48.840;10.064;2024-02-21T06:25:00;97075.19;;;3.62;100.00
34328;BME280;20588;48.840;10.064;2024-02-21T06:27:28;97069.31;;;3.61;100.00
34328;BME280;20588;48.840;10.064;2024-02-21T06:29:54;97066.91;;;3.60;100.00
34328;BME280;20588;48.840;10.064;2024-02-21T06:32:20;97066.13;;;3.59;100.00
34328;BME280;20588;48.840;10.064;2024-02-21T06:34:46;97061.03;;;3.59;100.00
34328;BME280;20588;48.840;10.064;2024-02-21T06:37:12;97064.22;;;3.61;100.00
34328;BME280;20588;48.840;10.064;2024-02-21T06:39:38;97067.75;;;3.68;100.00
34328;BME280;20588;48.840;10.064;2024-02-21T06:42:06;97069.72;;;3.83;100.00
34328;BME280;20588;48.840;10.064;2024-02-21T06:44:32;97055.59;;;3.96;100.00
34328;BME280;20588;48.840;10.064;2024-02-21T06:47:02;97070.44;;;4.25;100.00
34328;BME280;20588;48.840;10.064;2024-02-21T06:49:28;97069.03;;;4.62;100.00
34328;BME280;20588;48.840;10.064;2024-02-21T06:51:54;97064.53;;;5.28;100.00
34328;BME280;20588;48.840;10.064;2024-02-21T06:54:20;97061.16;;;5.75;100.00
34328;BME280;20588;48.840;10.064;2024-02-21T06:56:46;97054.44;;;6.12;100.00
34328;BME280;20588;48.840;10.064;2024-02-21T06:59:12;97053.50;;;6.36;100.00
34328;BME280;20588;48.840;10.064;2024-02-21T07:01:48;97048.50;;;6.65;100.00
34328;BME280;20588;48.840;10.064;2024-02-21T07:04:14;97057.50;;;6.98;100.00
34328;BME280;20588;48.840;10.064;2024-02-21T07:06:40;97057.25;;;7.36;100.00
34328;BME280;20588;48.840;10.064;2024-02-21T07:09:06;97059.53;;;7.61;100.00
34328;BME280;20588;48.840;10.064;2024-02-21T07:11:32;97058.53;;;7.91;100.00
34328;BME280;20588;48.840;10.064;2024-02-21T07:13:58;97048.50;;;8.46;98.73
34328;BME280;20588;48.840;10.064;2024-02-21T07:16:24;97049.94;;;8.76;96.01
34328;BME280;20588;48.840;10.064;2024-02-21T07:18:52;97053.84;;;8.93;93.87
34328;BME280;20588;48.840;10.064;2024-02-21T07:21:18;97048.84;;;9.40;91.79
34328;BME280;20588;48.840;10.064;2024-02-21T07:23:44;97052.94;;;10.16;87.76
34328;BME280;20588;48.840;10.064;2024-02-21T07:26:10;97055.44;;;10.82;83.21
34328;BME280;20588;48.840;10.064;2024-02-21T07:28:36;97030.63;;;11.27;80.32
34328;BME280;20588;48.840;10.064;2024-02-21T07:31:02;97033.09;;;11.79;76.71
34328;BME280;20588;48.840;10.064;2024-02-21T07:33:28;97035.59;;;12.30;73.80
34328;BME280;20588;48.840;10.064;2024-02-21T07:35:56;97026.69;;;13.13;69.85
34328;BME280;20588;48.840;10.064;2024-02-21T07:38:22;97043.69;;;13.63;65.57
34328;BME280;20588;48.840;10.064;2024-02-21T07:40:48;97034.97;;;13.75;63.52
34328;BME280;20588;48.840;10.064;2024-02-21T07:43:14;97025.41;;;13.76;62.39
34328;BME280;20588;48.840;10.064;2024-02-21T07:45:40;97024.78;;;13.44;62.79
34328;BME280;20588;48.840;10.064;2024-02-21T07:48:07;97013.03;;;12.81;64.41
34328;BME280;20588;48.840;10.064;2024-02-21T07:50:33;97011.47;;;12.18;67.54
34328;BME280;20588;48.840;10.064;2024-02-21T07:52:59;97007.66;;;11.89;67.44
34328;BME280;20588;48.840;10.064;2024-02-21T07:55:25;97001.44;;;12.03;64.64
34328;BME280;20588;48.840;10.064;2024-02-21T07:57:51;96999.66;;;12.04;64.37
34328;BME280;20588;48.840;10.064;2024-02-21T08:00:18;97002.84;;;11.99;64.24
34328;BME280;20588;48.840;10.064;2024-02-21T08:02:48;96999.56;;;12.17;60.37
34328;BME280;20588;48.840;10.064;2024-02-21T08:05:14;97002.53;;;12.45;59.78
34328;BME280;20588;48.840;10.064;2024-02-21T08:07:40;96996.88;;;12.86;57.01
34328;BME280;20588;48.840;10.064;2024-02-21T08:10:07;97000.44;;;13.52;56.76
34328;BME280;20588;48.840;10.064;2024-02-21T08:12:34;96994.53;;;14.10;54.27
34328;BME280;20588;48.840;10.064;2024-02-21T08:15:00;96990.50;;;14.44;53.06
34328;BME280;20588;48.840;10.064;2024-02-21T08:17:26;96981.09;;;14.84;53.04
34328;BME280;20588;48.840;10.064;2024-02-21T08:19:52;96977.94;;;14.82;48.63
34328;BME280;20588;48.840;10.064;2024-02-21T08:22:18;96973.75;;;15.16;50.20
34328;BME280;20588;48.840;10.064;2024-02-21T08:24:44;96965.72;;;15.52;46.95
34328;BME280;20588;48.840;10.064;2024-02-21T08:27:10;96949.16;;;15.81;46.72
34328;BME280;20588;48.840;10.064;2024-02-21T08:29:36;96948.16;;;16.27;46.14
34328;BME280;20588;48.840;10.064;2024-02-21T08:32:03;96947.03;;;16.67;45.44
34328;BME280;20588;48.840;10.064;2024-02-21T08:34:29;96942.19;;;16.92;44.82
34328;BME280;20588;48.840;10.064;2024-02-21T08:36:56;96939.16;;;17.38;43.15
34328;BME280;20588;48.840;10.064;2024-02-21T08:39:22;96938.22;;;17.44;43.04
34328;BME280;20588;48.840;10.064;2024-02-21T08:41:48;96931.28;;;18.56;41.50
34328;BME280;20588;48.840;10.064;2024-02-21T08:44:14;96936.03;;;19.47;38.79
34328;BME280;20588;48.840;10.064;2024-02-21T08:46:40;96945.13;;;20.42;39.10
34328;BME280;20588;48.840;10.064;2024-02-21T08:49:06;96945.38;;;20.20;42.55
34328;BME280;20588;48.840;10.064;2024-02-21T08:51:33;96948.53;;;20.57;39.88
34328;BME280;20588;48.840;10.064;2024-02-21T08:53:59;96946.00;;;21.51;41.64
34328;BME280;20588;48.840;10.064;2024-02-21T08:56:26;96934.28;;;22.74;37.65
34328;BME280;20588;48.840;10.064;2024-02-21T08:58:52;96939.63;;;23.17;36.26
34328;BME280;20588;48.840;10.064;2024-02-21T09:01:18;96931.28;;;22.52;36.33
34328;BME280;20588;48.840;10.064;2024-02-21T09:03:46;96936.13;;;22.35;33.60
34328;BME280;20588;48.840;10.064;2024-02-21T09:06:12;96935.41;;;21.86;35.08
34328;BME280;20588;48.840;10.064;2024-02-21T09:08:39;96927.91;;;21.60;35.04
34328;BME280;20588;48.840;10.064;2024-02-21T09:11:06;96927.59;;;21.76;35.79
34328;BME280;20588;48.840;10.064;2024-02-21T09:13:32;96927.94;;;22.42;34.28
34328;BME280;20588;48.840;10.064;2024-02-21T09:15:58;96923.72;;;22.79;34.28
34328;BME280;20588;48.840;10.064;2024-02-21T09:18:24;96927.25;;;22.65;33.11
34328;BME280;20588;48.840;10.064;2024-02-21T09:20:50;96925.09;;;22.38;34.45
34328;BME280;20588;48.840;10.064;2024-02-21T09:23:17;96922.06;;;22.21;34.65
34328;BME280;20588;48.840;10.064;2024-02-21T09:25:45;96918.13;;;21.80;34.50
34328;BME280;20588;48.840;10.064;2024-02-21T09:28:12;96913.94;;;21.79;35.22
34328;BME280;20588;48.840;10.064;2024-02-21T09:30:39;96913.19;;;21.69;35.17
34328;BME280;20588;48.840;10.064;2024-02-21T09:33:05;96910.44;;;21.40;36.15
34328;BME280;20588;48.840;10.064;2024-02-21T09:35:31;96913.72;;;20.97;36.09
34328;BME280;20588;48.840;10.064;2024-02-21T09:37:59;96910.03;;;20.83;36.88
34328;BME280;20588;48.840;10.064;2024-02-21T09:40:25;96910.34;;;20.61;37.14
34328;BME280;20588;48.840;10.064;2024-02-21T09:43:05;96906.16;;;20.40;38.10
34328;BME280;20588;48.840;10.064;2024-02-21T09:45:34;96914.72;;;20.06;38.34
34328;BME280;20588;48.840;10.064;2024-02-21T09:50:43;96897.72;;;19.88;38.34
34328;BME280;20588;48.840;10.064;2024-02-21T09:53:13;96893.50;;;19.72;38.70
34328;BME280;20588;48.840;10.064;2024-02-21T09:55:40;96896.84;;;19.52;39.06
34328;BME280;20588;48.840;10.064;2024-02-21T09:58:08;96904.66;;;19.42;39.03
34328;BME280;20588;48.840;10.064;2024-02-21T10:00:36;96889.22;;;19.36;39.56
34328;BME280;20588;48.840;10.064;2024-02-21T10:03:05;96892.38;;;19.38;39.40
34328;BME280;20588;48.840;10.064;2024-02-21T10:05:38;96886.91;;;19.39;39.18
34328;BME280;20588;48.840;10.064;2024-02-21T10:08:05;96884.50;;;19.28;39.19
34328;BME280;20588;48.840;10.064;2024-02-21T10:10:44;96878.81;;;19.41;39.26
34328;BME280;20588;48.840;10.064;2024-02-21T10:13:21;96871.56;;;19.58;38.77
34328;BME280;20588;48.840;10.064;2024-02-21T10:15:47;96881.03;;;19.94;38.56
34328;BME280;20588;48.840;10.064;2024-02-21T10:18:18;96866.41;;;20.28;38.97
34328;BME280;20588;48.840;10.064;2024-02-21T10:20:44;96872.41;;;20.59;37.17
34328;BME280;20588;48.840;10.064;2024-02-21T10:23:11;96863.78;;;20.43;37.24
34328;BME280;20588;48.840;10.064;2024-02-21T10:25:37;96860.91;;;20.45;36.76
34328;BME280;20588;48.840;10.064;2024-02-21T10:28:07;96860.66;;;20.56;36.35
34328;BME280;20588;48.840;10.064;2024-02-21T10:30:33;96850.16;;;20.71;36.10
34328;BME280;20588;48.840;10.064;2024-02-21T10:32:59;96854.47;;;21.16;35.74
34328;BME280;20588;48.840;10.064;2024-02-21T10:35:32;96852.81;;;21.40;35.72
34328;BME280;20588;48.840;10.064;2024-02-21T10:37:59;96851.88;;;21.65;34.66
34328;BME280;20588;48.840;10.064;2024-02-21T10:40:27;96852.94;;;22.07;34.11
34328;BME280;20588;48.840;10.064;2024-02-21T10:42:58;96854.28;;;22.38;33.90
34328;BME280;20588;48.840;10.064;2024-02-21T10:45:45;96847.78;;;22.31;33.27
34328;BME280;20588;48.840;10.064;2024-02-21T10:48:12;96847.69;;;22.69;33.40
34328;BME280;20588;48.840;10.064;2024-02-21T10:51:12;96834.75;;;23.01;32.67
34328;BME280;20588;48.840;10.064;2024-02-21T10:56:34;96831.06;;;23.82;32.08
34328;BME280;20588;48.840;10.064;2024-02-21T10:59:04;96822.47;;;24.27;30.67
34328;BME280;20588;48.840;10.064;2024-02-21T11:01:31;96822.28;;;24.23;30.15
34328;BME280;20588;48.840;10.064;2024-02-21T11:04:03;96824.84;;;24.42;29.99
34328;BME280;20588;48.840;10.064;2024-02-21T11:06:30;96815.94;;;24.24;30.30
34328;BME280;20588;48.840;10.064;2024-02-21T11:09:04;96809.38;;;23.90;30.66
34328;BME280;20588;48.840;10.064;2024-02-21T11:11:34;96801.53;;;23.53;31.12
34328;BME280;20588;48.840;10.064;2024-02-21T11:14:20;96793.72;;;23.29;31.07
34328;BME280;20588;48.840;10.064;2024-02-21T11:16:47;96784.78;;;23.06;31.41
34328;BME280;20588;48.840;10.064;2024-02-21T11:21:50;96766.97;;;23.03;31.74
34328;BME280;20588;48.840;10.064;2024-02-21T11:24:34;96770.03;;;23.10;32.30
34328;BME280;20588;48.840;10.064;2024-02-21T11:27:18;96759.19;;;23.17;32.21
34328;BME280;20588;48.840;10.064;2024-02-21T11:29:55;96751.50;;;23.21;31.35
34328;BME280;20588;48.840;10.064;2024-02-21T11:32:22;96746.91;;;22.89;31.26
34328;BME280;20588;48.840;10.064;2024-02-21T11:35:02;96742.09;;;22.77;31.23
34328;BME280;20588;48.840;10.064;2024-02-21T11:37:30;96740.16;;;23.06;30.63
34328;BME280;20588;48.840;10.064;2024-02-21T11:39:59;96733.78;;;22.89;31.46
34328;BME280;20588;48.840;10.064;2024-02-21T11:42:26;96734.88;;;22.88;31.35
34328;BME280;20588;48.840;10.064;2024-02-21T11:44:53;96718.94;;;22.61;31.15
34328;BME280;20588;48.840;10.064;2024-02-21T11:47:23;96712.94;;;22.32;31.82
34328;BME280;20588;48.840;10.064;2024-02-21T11:49:49;96718.19;;;22.08;32.11
34328;BME280;20588;48.840;10.064;2024-02-21T11:52:23;96715.06;;;21.73;32.46
34328;BME280;20588;48.840;10.064;2024-02-21T11:54:51;96708.22;;;21.43;32.79
34328;BME280;20588;48.840;10.064;2024-02-21T11:57:18;96708.84;;;21.30;32.88
34328;BME280;20588;48.840;10.064;2024-02-21T11:59:45;96707.81;;;21.26;33.49
34328;BME280;20588;48.840;10.064;2024-02-21T12:02:13;96702.69;;;21.11;33.34
34328;BME280;20588;48.840;10.064;2024-02-21T12:05:01;96693.63;;;20.88;33.85
34328;BME280;20588;48.840;10.064;2024-02-21T12:07:26;96693.97;;;20.72;35.14
34328;BME280;20588;48.840;10.064;2024-02-21T12:09:54;96682.28;;;20.54;35.37
34328;BME280;20588;48.840;10.064;2024-02-21T12:12:21;96684.16;;;20.39;35.87
34328;BME280;20588;48.840;10.064;2024-02-21T12:14:47;96673.47;;;20.35;35.86
34328;BME280;20588;48.840;10.064;2024-02-21T12:17:20;96666.69;;;20.24;35.92
34328;BME280;20588;48.840;10.064;2024-02-21T12:19:46;96662.81;;;20.17;36.22
34328;BME280;20588;48.840;10.064;2024-02-21T12:22:20;96657.34;;;19.98;36.51
34328;BME280;20588;48.840;10.064;2024-02-21T12:24:46;96656.34;;;19.84;37.07
34328;BME280;20588;48.840;10.064;2024-02-21T12:27:13;96649.56;;;19.68;37.06
34328;BME280;20588;48.840;10.064;2024-02-21T12:29:40;96648.56;;;19.49;37.20
34328;BME280;20588;48.840;10.064;2024-02-21T12:32:06;96641.47;;;19.24;36.92
34328;BME280;20588;48.840;10.064;2024-02-21T12:34:32;96636.50;;;18.98;36.86
34328;BME280;20588;48.840;10.064;2024-02-21T12:36:59;96631.25;;;18.73;37.25
34328;BME280;20588;48.840;10.064;2024-02-21T12:39:25;96624.69;;;18.55;37.94
34328;BME280;20588;48.840;10.064;2024-02-21T12:41:54;96622.72;;;18.26;37.87
34328;BME280;20588;48.840;10.064;2024-02-21T12:44:22;96616.94;;;18.09;38.19
34328;BME280;20588;48.840;10.064;2024-02-21T12:46:48;96617.72;;;18.09;37.92
34328;BME280;20588;48.840;10.064;2024-02-21T12:49:19;96607.53;;;17.98;38.57
34328;BME280;20588;48.840;10.064;2024-02-21T12:51:45;96603.06;;;17.93;38.64
34328;BME280;20588;48.840;10.064;2024-02-21T12:54:15;96594.19;;;17.84;39.06
34328;BME280;20588;48.840;10.064;2024-02-21T12:56:41;96590.31;;;17.91;38.77
34328;BME280;20588;48.840;10.064;2024-02-21T12:59:07;96585.94;;;18.02;39.13